Time;durP1;ratioP1;P1;durP2;ratioP2;P2;SDS_P1;SDS_P2;PMS_P1;PMS_P2;Temp;Humidity;BMP_temperature;BMP_pressure;BME280_temperature;BME280_humidity;BME280_pressure;Samples;Min_cycle;Max_cycle;Signal;HPM_P1;HPM_P2
2022/06/21 00:02:04;;;;;;;11.93;5.65;;;;;;;;;;5030134;28;20026;-59
2022/06/21 00:04:30;;;;;;;6.05;5.32;;;;;;;;;;5032059;28;20033;-57
2022/06/21 00:06:58;;;;;;;8.38;6.22;;;;;;;;;;5033257;28;20025;-59
2022/06/21 00:09:24;;;;;;;12.32;6.18;;;;;;;;;;5033313;28;20363;-58
2022/06/21 00:11:50;;;;;;;11.77;4.97;;;;;;;;;;5033541;28;20030;-60
2022/06/21 00:14:16;;;;;;;10.27;5.22;;;;;;;;;;5032963;28;20104;-57
2022/06/21 00:16:42;;;;;;;11.27;5.32;;;;;;;;;;5032646;28;20053;-59
2022/06/21 00:19:23;;;;;;;13.63;5.75;;;;;;;;;;5032939;28;20064;-59
2022/06/21 00:21:49;;;;;;;12.45;5.13;;;;;;;;;;5032886;28;20477;-58
2022/06/21 00:24:18;;;;;;;8.82;5.50;;;;;;;;;;5032878;28;20033;-59
2022/06/21 00:26:45;;;;;;;9.57;5.18;;;;;;;;;;5032789;28;20022;-59
2022/06/21 00:29:12;;;;;;;11.00;5.13;;;;;;;;;;5032745;28;20029;-58
2022/06/21 00:31:40;;;;;;;13.35;5.70;;;;;;;;;;5032596;28;20032;-59
2022/06/21 00:34:14;;;;;;;16.25;6.97;;;;;;;;;;5032929;28;20033;-56
2022/06/21 00:36:40;;;;;;;16.27;8.48;;;;;;;;;;5032814;28;20113;-58
2022/06/21 00:39:06;;;;;;;16.35;8.23;;;;;;;;;;5032655;28;20033;-55
2022/06/21 00:41:50;;;;;;;17.88;8.77;;;;;;;;;;5032427;28;20033;-58
2022/06/21 00:44:19;;;;;;;22.58;7.88;;;;;;;;;;5032373;28;20375;-59
2022/06/21 00:46:47;;;;;;;18.45;8.80;;;;;;;;;;5031381;28;20427;-60
2022/06/21 00:49:19;;;;;;;18.30;8.15;;;;;;;;;;5031973;28;20029;-58
2022/06/21 00:51:45;;;;;;;17.27;8.57;;;;;;;;;;5032169;28;20506;-56
2022/06/21 00:54:20;;;;;;;20.08;10.52;;;;;;;;;;5032422;28;20029;-58
2022/06/21 00:56:59;;;;;;;14.50;8.93;;;;;;;;;;5032598;28;20045;-58
2022/06/21 00:59:26;;;;;;;15.00;8.77;;;;;;;;;;5032328;28;20486;-59
2022/06/21 01:01:58;;;;;;;12.63;8.23;;;;;;;;;;5031992;28;20056;-58
2022/06/21 01:04:24;;;;;;;11.73;8.50;;;;;;;;;;5031855;28;20053;-58
2022/06/21 01:06:51;;;;;;;13.35;8.55;;;;;;;;;;5031171;28;20362;-58
2022/06/21 01:09:31;;;;;;;11.27;8.55;;;;;;;;;;5032234;28;20025;-57
2022/06/21 01:12:04;;;;;;;16.10;8.38;;;;;;;;;;5012712;28;20040;-58
2022/06/21 01:14:31;;;;;;;12.35;8.57;;;;;;;;;;5012636;28;20030;-59
2022/06/21 01:16:57;;;;;;;16.40;8.02;;;;;;;;;;5020207;28;20033;-56
2022/06/21 01:19:35;;;;;;;16.05;7.68;;;;;;;;;;5031285;28;20021;-59
2022/06/21 01:22:05;;;;;;;14.65;7.97;;;;;;;;;;5031842;28;20026;-59
2022/06/21 01:24:43;;;;;;;12.13;7.88;;;;;;;;;;5031891;28;20393;-58
2022/06/21 01:27:09;;;;;;;15.05;8.52;;;;;;;;;;5031581;28;20104;-59
2022/06/21 01:29:35;;;;;;;14.75;8.88;;;;;;;;;;5031915;28;20036;-55
2022/06/21 01:32:04;;;;;;;14.13;8.70;;;;;;;;;;5031909;28;20037;-59
2022/06/21 01:34:30;;;;;;;13.00;9.18;;;;;;;;;;5031526;28;20041;-58
2022/06/21 01:36:59;;;;;;;15.77;7.80;;;;;;;;;;5031576;28;20018;-55
2022/06/21 01:39:27;;;;;;;12.60;9.40;;;;;;;;;;5030290;28;20563;-55
2022/06/21 01:42:04;;;;;;;14.25;8.57;;;;;;;;;;5031528;28;20029;-59
2022/06/21 01:44:33;;;;;;;11.50;8.13;;;;;;;;;;5031628;28;20040;-58
2022/06/21 01:47:01;;;;;;;29.13;7.85;;;;;;;;;;5031592;28;20116;-58
2022/06/21 01:49:29;;;;;;;11.05;7.80;;;;;;;;;;5031104;28;20041;-60
2022/06/21 01:51:57;;;;;;;14.15;6.47;;;;;;;;;;5031431;28;20021;-59
2022/06/21 01:54:25;;;;;;;10.82;7.13;;;;;;;;;;5031605;28;20035;-58
2022/06/21 01:56:52;;;;;;;10.60;6.63;;;;;;;;;;5031081;28;20432;-55
2022/06/21 01:59:20;;;;;;;11.90;7.28;;;;;;;;;;5031277;28;20037;-58
2022/06/21 02:02:05;;;;;;;19.95;8.65;;;;;;;;;;5031156;28;20053;-59
2022/06/21 02:04:46;;;;;;;9.07;7.05;;;;;;;;;;5030856;28;20465;-59
2022/06/21 02:07:14;;;;;;;10.45;7.90;;;;;;;;;;5031243;28;20029;-58
2022/06/21 02:09:46;;;;;;;14.23;8.23;;;;;;;;;;5031175;28;20494;-59
2022/06/21 02:12:13;;;;;;;16.67;8.75;;;;;;;;;;5031389;28;20093;-57
2022/06/21 02:14:41;;;;;;;11.60;7.85;;;;;;;;;;5031211;28;20021;-59
2022/06/21 02:17:10;;;;;;;13.32;7.90;;;;;;;;;;5031349;28;20493;-59
2022/06/21 02:19:41;;;;;;;20.50;9.57;;;;;;;;;;5030780;28;20466;-59
2022/06/21 02:22:12;;;;;;;14.65;9.48;;;;;;;;;;5030612;28;20388;-58
2022/06/21 02:24:39;;;;;;;16.25;9.60;;;;;;;;;;5031285;28;20099;-59
2022/06/21 02:27:05;;;;;;;12.30;9.63;;;;;;;;;;5030931;28;20475;-59
2022/06/21 02:29:32;;;;;;;14.20;9.73;;;;;;;;;;5030566;28;20043;-59
2022/06/21 02:31:59;;;;;;;16.38;10.13;;;;;;;;;;5029472;28;20044;-59
2022/06/21 02:34:30;;;;;;;19.52;9.98;;;;;;;;;;5031350;28;20033;-59
2022/06/21 02:36:58;;;;;;;16.58;9.93;;;;;;;;;;5029796;28;20112;-58
2022/06/21 02:39:27;;;;;;;11.20;9.60;;;;;;;;;;5031239;28;20068;-58
2022/06/21 02:41:58;;;;;;;14.77;9.45;;;;;;;;;;5031083;28;20339;-59
2022/06/21 02:44:24;;;;;;;14.80;10.90;;;;;;;;;;5031056;28;20025;-59
2022/06/21 02:46:52;;;;;;;18.13;10.23;;;;;;;;;;5029327;28;20099;-58
2022/06/21 02:49:27;;;;;;;15.85;10.63;;;;;;;;;;5030667;28;20390;-59
2022/06/21 02:52:00;;;;;;;13.07;9.07;;;;;;;;;;5030952;28;20394;-59
2022/06/21 02:54:29;;;;;;;14.57;9.55;;;;;;;;;;5020057;28;20025;-59
2022/06/21 02:57:02;;;;;;;15.00;9.80;;;;;;;;;;5030852;28;20037;-59
2022/06/21 02:59:31;;;;;;;11.98;10.57;;;;;;;;;;5031218;28;20031;-60
2022/06/21 03:02:00;;;;;;;14.25;10.23;;;;;;;;;;5030605;28;20479;-59
2022/06/21 03:04:52;;;;;;;13.15;8.82;;;;;;;;;;5030603;28;20033;-59
2022/06/21 03:07:20;;;;;;;21.80;9.98;;;;;;;;;;5028684;28;20050;-59
2022/06/21 03:09:47;;;;;;;13.43;8.93;;;;;;;;;;5030979;28;20037;-58
2022/06/21 03:12:18;;;;;;;25.55;10.30;;;;;;;;;;5030956;28;20056;-59
2022/06/21 03:14:44;;;;;;;13.27;9.45;;;;;;;;;;5030758;28;20021;-58
2022/06/21 03:17:10;;;;;;;;;;;;;;;;;;5034189;28;20017;-58
2022/06/21 03:19:42;;;;;;;20.92;10.05;;;;;;;;;;5034247;28;19992;-58
2022/06/21 03:22:30;;;;;;;9.93;8.77;;;;;;;;;;5033946;28;20075;-59
2022/06/21 03:24:58;;;;;;;11.80;8.65;;;;;;;;;;5034692;28;20022;-59
2022/06/21 03:27:38;;;;;;;16.27;9.43;;;;;;;;;;5034174;28;20026;-59
2022/06/21 03:30:05;;;;;;;20.48;9.85;;;;;;;;;;5033995;28;20030;-59
2022/06/21 03:32:34;;;;;;;11.48;8.98;;;;;;;;;;5033292;28;20029;-61
2022/06/21 03:35:02;;;;;;;13.15;10.48;;;;;;;;;;5033381;28;20028;-59
2022/06/21 03:37:28;;;;;;;14.05;11.32;;;;;;;;;;5033618;28;20445;-60
2022/06/21 03:42:41;;;;;;;13.25;10.10;;;;;;;;;;5033218;28;20056;-60
2022/06/21 03:45:22;;;;;;;13.05;10.02;;;;;;;;;;5033520;28;20030;-60
2022/06/21 03:47:53;;;;;;;18.58;11.55;;;;;;;;;;5033995;28;20493;-59
2022/06/21 03:50:22;;;;;;;19.58;11.57;;;;;;;;;;5033707;28;20036;-58
2022/06/21 03:53:03;;;;;;;12.38;11.18;;;;;;;;;;5032316;28;20080;-60
2022/06/21 03:55:48;;;;;;;13.27;11.07;;;;;;;;;;5033760;28;20033;-58
2022/06/21 03:58:14;;;;;;;16.85;11.30;;;;;;;;;;5033199;28;20026;-58
2022/06/21 04:00:52;;;;;;;13.53;11.03;;;;;;;;;;5033279;28;20100;-59
2022/06/21 04:03:36;;;;;;;21.85;12.13;;;;;;;;;;5033788;28;20284;-59
2022/06/21 04:06:05;;;;;;;14.07;11.60;;;;;;;;;;5033596;28;20032;-58
2022/06/21 04:08:36;;;;;;;15.43;10.38;;;;;;;;;;5033054;28;20044;-60
2022/06/21 04:11:06;;;;;;;17.52;12.75;;;;;;;;;;5031733;28;20030;-58
2022/06/21 04:13:37;;;;;;;16.58;11.82;;;;;;;;;;5031692;28;20021;-59
2022/06/21 04:16:16;;;;;;;17.23;11.00;;;;;;;;;;5031714;28;20402;-60
2022/06/21 04:18:51;;;;;;;21.05;11.45;;;;;;;;;;5031333;28;20033;-61
2022/06/21 04:21:21;;;;;;;13.85;12.35;;;;;;;;;;5031795;28;20616;-60
2022/06/21 04:24:00;;;;;;;17.08;12.82;;;;;;;;;;5032151;28;20104;-60
2022/06/21 04:26:30;;;;;;;15.18;11.50;;;;;;;;;;5032794;28;20138;-61
2022/06/21 04:29:02;;;;;;;25.60;12.40;;;;;;;;;;5033126;28;20021;-60
2022/06/21 04:31:32;;;;;;;15.43;11.73;;;;;;;;;;5031900;28;20490;-59
2022/06/21 04:34:06;;;;;;;14.18;11.30;;;;;;;;;;5033103;28;20056;-58
2022/06/21 04:36:41;;;;;;;13.65;11.70;;;;;;;;;;5032790;28;20033;-60
2022/06/21 04:39:18;;;;;;;15.20;11.70;;;;;;;;;;5032244;28;20052;-60
2022/06/21 04:42:04;;;;;;;17.52;12.00;;;;;;;;;;5033161;28;20034;-59
2022/06/21 04:44:34;;;;;;;16.17;11.75;;;;;;;;;;5033066;28;20101;-61
2022/06/21 04:47:12;;;;;;;14.18;11.48;;;;;;;;;;5032964;28;20508;-60
2022/06/21 04:49:42;;;;;;;14.35;12.32;;;;;;;;;;5033248;28;20029;-60
2022/06/21 04:52:11;;;;;;;19.60;11.75;;;;;;;;;;5032873;28;20057;-61
2022/06/21 04:54:38;;;;;;;21.10;11.65;;;;;;;;;;5032892;28;20093;-61
2022/06/21 04:57:04;;;;;;;14.43;12.02;;;;;;;;;;5032853;28;20026;-59
2022/06/21 04:59:34;;;;;;;21.93;12.83;;;;;;;;;;5032737;28;20014;-61
2022/06/21 05:02:01;;;;;;;14.82;12.32;;;;;;;;;;5032580;28;20364;-61
2022/06/21 05:04:39;;;;;;;14.05;12.15;;;;;;;;;;5031403;28;20022;-58
2022/06/21 05:07:14;;;;;;;16.42;13.25;;;;;;;;;;5030713;28;20025;-59
2022/06/21 05:09:41;;;;;;;17.65;13.55;;;;;;;;;;5032240;28;20025;-59
2022/06/21 05:12:16;;;;;;;13.95;12.52;;;;;;;;;;5032505;28;20024;-58
2022/06/21 05:14:46;;;;;;;14.80;12.85;;;;;;;;;;5032549;28;20654;-54
2022/06/21 05:17:15;;;;;;;14.35;12.85;;;;;;;;;;5031885;28;20100;-56
2022/06/21 05:19:44;;;;;;;17.10;13.23;;;;;;;;;;5032338;28;20033;-54
2022/06/21 05:22:18;;;;;;;18.10;14.07;;;;;;;;;;5032346;28;20024;-56
2022/06/21 05:24:45;;;;;;;14.05;12.80;;;;;;;;;;5032246;28;20478;-55
2022/06/21 05:27:14;;;;;;;20.65;13.65;;;;;;;;;;5032000;28;20363;-54
2022/06/21 05:29:49;;;;;;;18.00;13.18;;;;;;;;;;5030883;28;20029;-56
2022/06/21 05:32:21;;;;;;;27.70;13.90;;;;;;;;;;5032023;28;20022;-55
2022/06/21 05:34:49;;;;;;;14.93;13.48;;;;;;;;;;5032031;28;20030;-56
2022/06/21 05:37:21;;;;;;;19.63;13.05;;;;;;;;;;5031676;28;20068;-56
2022/06/21 05:39:49;;;;;;;20.30;14.25;;;;;;;;;;5031528;28;20050;-56
2022/06/21 05:42:17;;;;;;;16.27;13.20;;;;;;;;;;5032116;28;20025;-57
2022/06/21 05:44:46;;;;;;;15.20;12.70;;;;;;;;;;5032056;28;20071;-58
2022/06/21 05:47:21;;;;;;;16.17;13.85;;;;;;;;;;5031666;28;20075;-55
2022/06/21 05:49:49;;;;;;;15.18;12.88;;;;;;;;;;5030897;28;20100;-56
2022/06/21 05:52:26;;;;;;;17.10;13.20;;;;;;;;;;5031714;28;20183;-57
2022/06/21 05:54:57;;;;;;;22.60;12.32;;;;;;;;;;5030577;28;20477;-53
2022/06/21 05:57:25;;;;;;;21.00;12.85;;;;;;;;;;5031533;28;20022;-54
2022/06/21 05:59:51;;;;;;;14.23;12.35;;;;;;;;;;5031610;28;20474;-53
2022/06/21 06:02:17;;;;;;;15.55;13.13;;;;;;;;;;5031604;28;20496;-53
2022/06/21 06:05:06;;;;;;;19.05;12.13;;;;;;;;;;5031599;28;20018;-54
2022/06/21 06:07:37;;;;;;;22.92;13.20;;;;;;;;;;5031523;28;20065;-55
2022/06/21 06:10:04;;;;;;;16.73;13.35;;;;;;;;;;5031748;28;20029;-55
2022/06/21 06:12:32;;;;;;;13.77;12.20;;;;;;;;;;5031276;28;20037;-54
2022/06/21 06:15:02;;;;;;;14.98;12.05;;;;;;;;;;5031603;28;20030;-56
2022/06/21 06:17:37;;;;;;;13.98;11.80;;;;;;;;;;5031479;28;20041;-54
2022/06/21 06:20:18;;;;;;;13.90;12.13;;;;;;;;;;5031500;28;20036;-51
2022/06/21 06:23:05;;;;;;;15.75;11.23;;;;;;;;;;5031558;28;20022;-53
2022/06/21 06:25:34;;;;;;;13.15;11.10;;;;;;;;;;5016913;28;20486;-53
2022/06/21 06:28:19;;;;;;;19.55;11.95;;;;;;;;;;5031670;28;20026;-55
2022/06/21 06:30:48;;;;;;;15.52;11.50;;;;;;;;;;5031623;28;20018;-53
2022/06/21 06:33:17;;;;;;;13.23;10.75;;;;;;;;;;5031457;28;20096;-53
2022/06/21 06:35:44;;;;;;;11.25;9.70;;;;;;;;;;5031312;28;20386;-57
2022/06/21 06:38:14;;;;;;;13.23;9.35;;;;;;;;;;5046438;28;20030;-55
2022/06/21 06:40:43;;;;;;;13.15;8.90;;;;;;;;;;5031396;28;20120;-53
2022/06/21 06:43:18;;;;;;;10.60;8.65;;;;;;;;;;5031417;28;20472;-53
2022/06/21 06:45:45;;;;;;;19.45;8.52;;;;;;;;;;5046707;28;20025;-54
2022/06/21 06:48:13;;;;;;;18.48;9.32;;;;;;;;;;5031115;28;20080;-57
2022/06/21 06:50:58;;;;;;;20.23;15.13;;;;;;;;;;5034029;28;20021;-52
2022/06/21 06:53:31;;;;;;;12.88;7.22;;;;;;;;;;5035164;28;20032;-51
2022/06/21 06:56:03;;;;;;;11.23;6.57;;;;;;;;;;5035124;28;20036;-55
2022/06/21 06:58:45;;;;;;;12.02;5.95;;;;;;;;;;5035363;28;20459;-52
2022/06/21 07:01:19;;;;;;;13.82;5.35;;;;;;;;;;5034951;28;20025;-53
2022/06/21 07:03:48;;;;;;;9.95;5.82;;;;;;;;;;5035046;28;20057;-52
2022/06/21 07:06:14;;;;;;;8.23;5.80;;;;;;;;;;5034959;28;20021;-52
2022/06/21 07:08:48;;;;;;;11.50;5.80;;;;;;;;;;5034641;28;20079;-52
2022/06/21 07:11:32;;;;;;;12.02;5.82;;;;;;;;;;5050142;28;20033;-52
2022/06/21 07:14:00;;;;;;;10.38;5.35;;;;;;;;;;5034726;28;20033;-55
2022/06/21 07:16:26;;;;;;;12.80;5.40;;;;;;;;;;5034577;28;20032;-52
2022/06/21 07:18:52;;;;;;;;;;;;;;;;;;5050227;28;20112;-52
2022/06/21 07:21:19;;;;;;;9.95;5.32;;;;;;;;;;5034249;28;20012;-52
2022/06/21 07:23:45;;;;;;;7.75;4.88;;;;;;;;;;5032733;28;20017;-55
2022/06/21 07:26:31;;;;;;;10.23;5.57;;;;;;;;;;5034345;28;20029;-52
2022/06/21 07:29:02;;;;;;;10.82;6.18;;;;;;;;;;5034362;28;20026;-52
2022/06/21 07:31:36;;;;;;;13.40;6.50;;;;;;;;;;5034492;28;20025;-54
2022/06/21 07:34:11;;;;;;;12.57;5.97;;;;;;;;;;5033862;28;20056;-52
2022/06/21 07:36:43;;;;;;;10.18;6.43;;;;;;;;;;5034008;28;20080;-53
2022/06/21 07:39:25;;;;;;;7.43;4.22;;;;;;;;;;5034249;28;20026;-56
2022/06/21 07:41:54;;;;;;;9.52;4.03;;;;;;;;;;5034238;28;20034;-55
2022/06/21 07:44:26;;;;;;;8.52;4.20;;;;;;;;;;5034140;28;20083;-52
2022/06/21 07:46:54;;;;;;;11.23;5.10;;;;;;;;;;5033791;28;20076;-59
2022/06/21 07:49:25;;;;;;;13.85;4.97;;;;;;;;;;5033960;28;20021;-59
2022/06/21 07:51:59;;;;;;;6.93;4.40;;;;;;;;;;5034029;28;20465;-56
2022/06/21 07:54:29;;;;;;;9.45;5.15;;;;;;;;;;5034319;28;20032;-55
2022/06/21 07:57:01;;;;;;;7.97;4.07;;;;;;;;;;5033638;28;20128;-58
2022/06/21 07:59:27;;;;;;;8.98;4.05;;;;;;;;;;5033798;28;20029;-58
2022/06/21 08:07:58;;;;;;;8.50;3.75;;;;;;;;;;5033496;28;20175;-54
2022/06/21 08:10:45;;;;;;;14.40;4.25;;;;;;;;;;5033812;28;20029;-54
2022/06/21 08:13:11;;;;;;;7.85;4.50;;;;;;;;;;5033526;28;20107;-58
2022/06/21 08:15:43;;;;;;;8.52;3.95;;;;;;;;;;5032225;28;20030;-57
2022/06/21 08:18:26;;;;;;;10.80;3.53;;;;;;;;;;5054854;22;20041;-61
2022/06/21 08:20:57;;;;;;;9.70;4.45;;;;;;;;;;5033733;28;20355;-61
2022/06/21 08:23:29;;;;;;;8.93;4.57;;;;;;;;;;5033568;28;20060;-61
2022/06/21 08:25:58;;;;;;;9.77;3.95;;;;;;;;;;5033379;28;20486;-61
2022/06/21 08:28:35;;;;;;;8.57;3.53;;;;;;;;;;5031738;28;20565;-61
2022/06/21 08:31:06;;;;;;;5.30;3.90;;;;;;;;;;5033335;28;20079;-61
2022/06/21 08:33:35;;;;;;;11.25;3.90;;;;;;;;;;5033114;28;20116;-61
2022/06/21 08:36:11;;;;;;;11.07;4.43;;;;;;;;;;5033224;28;20029;-61
2022/06/21 08:38:46;;;;;;;5.65;3.45;;;;;;;;;;5032785;28;20021;-62
2022/06/21 08:44:26;;;;;;;7.47;4.10;;;;;;;;;;5033005;28;20107;-61
2022/06/21 08:46:55;;;;;;;8.82;4.07;;;;;;;;;;5009878;28;20046;-60
2022/06/21 08:49:24;;;;;;;9.88;3.90;;;;;;;;;;5013298;28;20028;-60
2022/06/21 08:51:57;;;;;;;8.02;3.58;;;;;;;;;;5013186;28;20112;-60
2022/06/21 08:54:26;;;;;;;9.40;4.38;;;;;;;;;;5013200;28;20043;-61
2022/06/21 08:57:11;;;;;;;5.20;3.40;;;;;;;;;;5012331;28;20048;-60
2022/06/21 08:59:56;;;;;;;6.70;3.80;;;;;;;;;;5012888;28;20092;-60
2022/06/21 09:02:41;;;;;;;6.00;3.63;;;;;;;;;;5012953;28;20498;-60
2022/06/21 09:05:07;;;;;;;8.27;3.33;;;;;;;;;;5012900;28;20058;-60
2022/06/21 09:07:51;;;;;;;8.15;3.20;;;;;;;;;;5012679;28;20018;-60
2022/06/21 09:10:32;;;;;;;7.95;3.42;;;;;;;;;;5012763;28;20394;-60
2022/06/21 09:12:58;;;;;;;10.15;3.17;;;;;;;;;;5012773;28;20386;-61
2022/06/21 09:15:24;;;;;;;7.10;3.38;;;;;;;;;;5012777;28;20112;-60
2022/06/21 09:18:09;;;;;;;12.80;4.13;;;;;;;;;;5012340;28;20129;-60
2022/06/21 09:20:38;;;;;;;6.35;3.50;;;;;;;;;;5012429;28;20109;-60
2022/06/21 09:23:07;;;;;;;6.15;4.53;;;;;;;;;;5012583;28;20053;-60
2022/06/21 09:25:40;;;;;;;5.88;4.25;;;;;;;;;;5012535;28;20533;-60
2022/06/21 09:28:15;;;;;;;7.20;3.20;;;;;;;;;;5012335;28;20421;-60
2022/06/21 09:30:44;;;;;;;4.85;2.95;;;;;;;;;;5012260;28;20041;-60
2022/06/21 09:33:22;;;;;;;11.95;3.80;;;;;;;;;;5012529;28;20026;-61
2022/06/21 09:35:54;;;;;;;6.57;3.85;;;;;;;;;;5012473;28;20105;-60
2022/06/21 09:38:39;;;;;;;6.20;3.40;;;;;;;;;;5012128;28;20045;-60
2022/06/21 09:41:28;;;;;;;11.88;3.58;;;;;;;;;;5012056;28;20057;-60
2022/06/21 09:44:15;;;;;;;7.68;3.38;;;;;;;;;;5011053;28;20053;-60
2022/06/21 09:46:56;;;;;;;6.38;3.25;;;;;;;;;;5012109;28;20045;-60
2022/06/21 09:49:49;;;;;;;6.60;3.10;;;;;;;;;;5011921;28;20022;-60
2022/06/21 09:52:15;;;;;;;9.02;3.55;;;;;;;;;;5012215;28;20025;-60
2022/06/21 09:54:59;;;;;;;8.25;3.58;;;;;;;;;;5012135;28;20030;-60
2022/06/21 09:57:41;;;;;;;7.90;3.78;;;;;;;;;;5011900;28;20087;-61
2022/06/21 10:00:22;;;;;;;9.55;3.20;;;;;;;;;;5011835;28;20037;-60
2022/06/21 10:02:58;;;;;;;7.70;3.08;;;;;;;;;;5012287;28;20422;-61
2022/06/21 10:05:32;;;;;;;8.35;3.13;;;;;;;;;;5012019;28;20030;-61
2022/06/21 10:07:58;;;;;;;8.50;3.50;;;;;;;;;;5011884;28;20022;-60
2022/06/21 10:10:40;;;;;;;10.52;3.15;;;;;;;;;;5011699;28;20409;-61
2022/06/21 10:13:18;;;;;;;4.72;2.95;;;;;;;;;;5018470;28;20117;-59
2022/06/21 10:15:50;;;;;;;6.43;2.67;;;;;;;;;;5012006;28;20029;-59
2022/06/21 10:18:35;;;;;;;5.78;3.47;;;;;;;;;;5031120;28;20041;-58
2022/06/21 10:21:16;;;;;;;8.15;3.90;;;;;;;;;;5024145;28;20113;-58
2022/06/21 10:23:46;;;;;;;4.13;2.67;;;;;;;;;;5030970;28;20049;-59
2022/06/21 10:26:15;;;;;;;7.53;3.42;;;;;;;;;;5034955;28;20029;-57
2022/06/21 10:28:46;;;;;;;4.07;2.67;;;;;;;;;;5035040;28;20059;-59
2022/06/21 10:31:24;;;;;;;11.20;3.72;;;;;;;;;;5019551;28;20757;-60
2022/06/21 10:33:59;;;;;;;8.65;3.05;;;;;;;;;;5024400;28;20030;-59
2022/06/21 10:36:40;;;;;;;6.63;2.90;;;;;;;;;;5016250;28;20046;-59
2022/06/21 10:39:19;;;;;;;9.70;2.63;;;;;;;;;;5034955;28;20033;-61
2022/06/21 10:44:37;;;;;;;5.32;2.65;;;;;;;;;;5030336;28;20040;-60
2022/06/21 10:47:08;;;;;;;8.85;3.47;;;;;;;;;;5032629;28;20080;-60
2022/06/21 10:49:53;;;;;;;7.18;4.55;;;;;;;;;;5018085;28;20048;-60
2022/06/21 10:52:34;;;;;;;8.82;3.25;;;;;;;;;;5031871;28;20033;-60
2022/06/21 10:55:15;;;;;;;5.82;2.83;;;;;;;;;;5032537;28;20091;-58
2022/06/21 10:57:47;;;;;;;4.28;2.95;;;;;;;;;;5029498;28;20470;-59
2022/06/21 11:03:11;;;;;;;18.25;9.63;;;;;;;;;;5035090;28;20052;-56
2022/06/21 11:05:59;;;;;;;6.87;2.73;;;;;;;;;;5033242;28;20029;-58
2022/06/21 11:08:41;;;;;;;6.95;2.67;;;;;;;;;;5034436;28;20030;-59
2022/06/21 11:11:07;;;;;;;5.07;2.67;;;;;;;;;;5032748;28;20033;-59
2022/06/21 11:13:50;;;;;;;7.32;3.00;;;;;;;;;;5034352;28;20548;-59
2022/06/21 11:16:40;;;;;;;5.47;3.30;;;;;;;;;;5026009;28;20029;-60
2022/06/21 11:19:14;;;;;;;11.73;3.00;;;;;;;;;;5012751;28;20038;-59
2022/06/21 11:21:40;;;;;;;9.52;3.30;;;;;;;;;;5031481;28;20029;-60
2022/06/21 11:24:07;;;;;;;7.35;2.90;;;;;;;;;;5017423;28;20037;-67
2022/06/21 11:26:33;;;;;;;;;;;;;;;;;;5028283;28;20490;-57
2022/06/21 11:29:24;;;;;;;7.93;2.83;;;;;;;;;;5033126;28;19995;-58
2022/06/21 11:32:11;;;;;;;6.80;2.72;;;;;;;;;;5019009;28;20144;-58
2022/06/21 11:34:40;;;;;;;9.15;3.35;;;;;;;;;;5023218;28;20033;-57
2022/06/21 11:37:06;;;;;;;5.15;3.05;;;;;;;;;;5032522;28;20013;-58
2022/06/21 11:39:32;;;;;;;8.82;3.30;;;;;;;;;;5034469;28;20487;-58
2022/06/21 11:42:21;;;;;;;9.50;3.10;;;;;;;;;;5023820;28;20026;-58
2022/06/21 11:44:59;;;;;;;7.15;3.00;;;;;;;;;;5025870;28;20044;-57
2022/06/21 11:47:25;;;;;;;8.82;2.83;;;;;;;;;;5033515;28;20033;-58
2022/06/21 11:50:16;;;;;;;10.02;3.42;;;;;;;;;;5034201;28;20036;-58
2022/06/21 11:52:54;;;;;;;10.38;3.10;;;;;;;;;;5033550;28;20032;-58
2022/06/21 11:55:32;;;;;;;8.27;3.20;;;;;;;;;;5033983;28;20033;-59
2022/06/21 11:58:01;;;;;;;7.70;3.15;;;;;;;;;;5032399;28;20083;-58
2022/06/21 12:00:30;;;;;;;11.60;3.78;;;;;;;;;;5033863;28;20029;-58
2022/06/21 12:02:57;;;;;;;11.10;3.40;;;;;;;;;;5033640;28;20029;-58
2022/06/21 12:05:38;;;;;;;10.88;3.60;;;;;;;;;;5033816;28;20061;-58
2022/06/21 12:08:04;;;;;;;7.25;3.45;;;;;;;;;;5033312;28;20496;-57
2022/06/21 12:10:41;;;;;;;6.65;3.17;;;;;;;;;;5033548;28;20040;-58
2022/06/21 12:13:25;;;;;;;8.70;3.28;;;;;;;;;;5032586;28;20032;-59
2022/06/21 12:16:15;;;;;;;5.38;2.80;;;;;;;;;;5033364;28;20065;-57
2022/06/21 12:18:44;;;;;;;8.60;3.35;;;;;;;;;;5032793;28;20044;-57
2022/06/21 12:21:12;;;;;;;9.40;3.35;;;;;;;;;;5033182;28;20025;-58
2022/06/21 12:23:44;;;;;;;15.20;4.15;;;;;;;;;;5032788;28;20017;-58
2022/06/21 12:26:37;;;;;;;10.48;3.25;;;;;;;;;;5033040;28;20061;-58
2022/06/21 12:29:05;;;;;;;11.30;3.67;;;;;;;;;;5031808;28;20498;-58
2022/06/21 12:31:35;;;;;;;8.45;3.40;;;;;;;;;;5033127;28;20613;-57
2022/06/21 12:34:06;;;;;;;5.40;2.97;;;;;;;;;;5032765;28;20152;-57
2022/06/21 12:36:47;;;;;;;11.88;3.05;;;;;;;;;;5033004;28;20030;-58
2022/06/21 12:39:16;;;;;;;9.65;3.38;;;;;;;;;;5031496;28;20053;-58
2022/06/21 12:41:42;;;;;;;12.82;3.90;;;;;;;;;;5032856;28;20043;-58
2022/06/21 12:44:08;;;;;;;7.82;3.33;;;;;;;;;;5032399;28;20069;-59
2022/06/21 12:46:43;;;;;;;11.55;3.13;;;;;;;;;;5032825;28;20053;-58
2022/06/21 12:49:24;;;;;;;11.27;3.40;;;;;;;;;;5032401;28;20091;-59
2022/06/21 12:51:56;;;;;;;7.72;3.35;;;;;;;;;;5032865;28;20037;-59
2022/06/21 12:54:22;;;;;;;11.45;3.97;;;;;;;;;;5032683;28;20038;-59
2022/06/21 12:56:48;;;;;;;8.00;3.20;;;;;;;;;;5032666;28;20033;-59
2022/06/21 12:59:33;;;;;;;14.77;4.13;;;;;;;;;;5032358;28;20034;-59
2022/06/21 13:02:23;;;;;;;13.75;4.32;;;;;;;;;;5032539;28;20040;-59
2022/06/21 13:05:15;;;;;;;7.30;3.25;;;;;;;;;;5032548;28;20037;-59
2022/06/21 13:07:44;;;;;;;10.95;3.58;;;;;;;;;;5023897;28;20037;-59
2022/06/21 13:10:10;;;;;;;8.70;3.60;;;;;;;;;;5032536;28;20025;-59
2022/06/21 13:12:45;;;;;;;7.45;3.38;;;;;;;;;;5032380;28;20060;-59
2022/06/21 13:15:24;;;;;;;15.05;4.88;;;;;;;;;;5032721;28;20022;-59
2022/06/21 13:18:02;;;;;;;9.85;3.80;;;;;;;;;;5032061;28;20037;-59
2022/06/21 13:20:28;;;;;;;12.63;3.05;;;;;;;;;;5032078;28;20552;-59
2022/06/21 13:23:17;;;;;;;11.98;3.35;;;;;;;;;;5032042;28;20564;-59
2022/06/21 13:26:16;;;;;;;10.82;4.10;;;;;;;;;;5022012;28;20040;-59
2022/06/21 13:28:51;;;;;;;9.23;3.47;;;;;;;;;;5019856;28;20026;-60
2022/06/21 13:31:31;;;;;;;8.40;3.45;;;;;;;;;;5025642;28;20114;-59
2022/06/21 13:33:59;;;;;;;8.73;3.33;;;;;;;;;;5032037;28;20029;-59
2022/06/21 13:36:25;;;;;;;7.65;3.15;;;;;;;;;;5031934;28;20139;-59
2022/06/21 13:38:57;;;;;;;6.57;2.88;;;;;;;;;;5030144;28;20104;-59
2022/06/21 13:44:28;;;;;;;14.48;5.57;;;;;;;;;;5024735;28;20036;-57
2022/06/21 13:47:01;;;;;;;8.05;3.63;;;;;;;;;;5021183;28;20037;-59
2022/06/21 13:49:30;;;;;;;8.57;3.45;;;;;;;;;;5028303;28;20029;-59
2022/06/21 13:51:59;;;;;;;10.30;3.45;;;;;;;;;;5025228;28;20044;-59
2022/06/21 13:54:32;;;;;;;12.50;3.97;;;;;;;;;;5019949;28;20023;-59
2022/06/21 13:57:04;;;;;;;8.88;3.67;;;;;;;;;;5022352;28;20367;-59
2022/06/21 13:59:50;;;;;;;11.35;3.28;;;;;;;;;;5021545;28;20025;-60
2022/06/21 14:02:35;;;;;;;14.00;3.10;;;;;;;;;;5027801;28;20425;-59
2022/06/21 14:05:19;;;;;;;11.38;2.97;;;;;;;;;;5031665;28;20017;-60
2022/06/21 14:07:56;;;;;;;11.27;3.80;;;;;;;;;;5031419;28;20398;-59
2022/06/21 14:10:22;;;;;;;13.27;3.05;;;;;;;;;;5030326;28;20538;-59
2022/06/21 14:12:48;;;;;;;;;;;;;;;;;;5031953;28;20033;-58
2022/06/21 14:15:30;;;;;;;13.07;3.42;;;;;;;;;;5031540;28;20592;-59
2022/06/21 14:18:05;;;;;;;10.82;3.20;;;;;;;;;;5022722;28;20026;-58
2022/06/21 14:20:31;;;;;;;7.65;3.20;;;;;;;;;;5020469;28;20540;-59
2022/06/21 14:22:57;;;;;;;;;;;;;;;;;;5012406;28;20021;-58
2022/06/21 14:25:23;;;;;;;12.73;3.45;;;;;;;;;;5029345;28;19912;-59
2022/06/21 14:28:05;;;;;;;7.03;3.00;;;;;;;;;;5027130;28;20122;-59
2022/06/21 14:30:35;;;;;;;10.05;3.45;;;;;;;;;;5031400;28;20028;-59
2022/06/21 14:33:11;;;;;;;12.25;3.28;;;;;;;;;;5027809;28;20132;-59
2022/06/21 14:35:46;;;;;;;16.47;3.03;;;;;;;;;;5016897;28;20022;-59
2022/06/21 14:38:24;;;;;;;10.32;3.58;;;;;;;;;;5031133;28;20268;-59
2022/06/21 14:40:56;;;;;;;8.27;3.75;;;;;;;;;;5023274;28;20029;-59
2022/06/21 14:43:28;;;;;;;10.85;3.33;;;;;;;;;;5020485;28;20028;-59
2022/06/21 14:46:01;;;;;;;9.18;3.33;;;;;;;;;;5024782;28;20060;-59
2022/06/21 14:48:36;;;;;;;9.77;3.60;;;;;;;;;;5030502;28;20401;-59
2022/06/21 14:51:09;;;;;;;10.98;4.93;;;;;;;;;;5028933;28;20056;-58
2022/06/21 14:53:41;;;;;;;11.02;3.95;;;;;;;;;;5024748;28;20030;-59
2022/06/21 14:56:10;;;;;;;14.00;4.55;;;;;;;;;;5027965;28;20478;-59
2022/06/21 14:58:55;;;;;;;14.93;3.78;;;;;;;;;;5031072;28;20556;-56
2022/06/21 15:01:21;;;;;;;8.40;3.55;;;;;;;;;;5028977;28;20087;-59
2022/06/21 15:03:59;;;;;;;7.90;3.53;;;;;;;;;;5019314;28;20022;-59
2022/06/21 15:06:30;;;;;;;11.13;3.08;;;;;;;;;;5030922;28;20572;-59
2022/06/21 15:09:15;;;;;;;5.47;2.85;;;;;;;;;;5031085;28;20045;-59
2022/06/21 15:12:03;;;;;;;11.95;3.00;;;;;;;;;;5023673;28;20034;-59
2022/06/21 15:14:38;;;;;;;9.73;2.97;;;;;;;;;;5021636;28;20025;-59
2022/06/21 15:17:10;;;;;;;15.20;3.53;;;;;;;;;;5033529;28;20112;-59
2022/06/21 15:19:55;;;;;;;11.88;3.58;;;;;;;;;;5034359;28;20030;-59
2022/06/21 15:22:27;;;;;;;8.48;3.10;;;;;;;;;;5033883;28;20033;-59
2022/06/21 15:24:59;;;;;;;9.93;4.25;;;;;;;;;;5032406;28;20021;-59
2022/06/21 15:27:28;;;;;;;8.07;3.85;;;;;;;;;;5034249;28;20072;-59
2022/06/21 15:29:55;;;;;;;10.30;3.75;;;;;;;;;;5032342;28;20057;-59